Elba, AL (36323)

9:26 PM CDT on May 24, 2015 (GMT -0500)
APRSWXNET | | Change Station
CLOSE
Current Station
Personal Weather Station
Location: New Brockton, AL
Elevation: 1194 ft
Nearby Weather Stations

Elev 1194 ft 31.34 °N, 85.93 °W | Updated 22 minutes ago

Rain
Rain
70 °F
Feels Like 70 °F
N
0
Wind Variable Wind from ENE
Gusts 9.0 mph

Today
High -- | Low -- °F
--% Chance of Precip.
Yesterday
High -- | Low -- °F
Precip. -- in
5:43 AM 7:39 PM
Waxing Crescent, 44% visible
Pressure 30.14 in
Visibility 9.0 miles
Clouds Mostly Cloudy 5500 ft
Overcast 7500 ft
Dew Point 69 °F
Humidity 96%
Rainfall in
Snow Depth Not available.
UV 0 out of 12
Pollen 6.40 out of 12
Air Quality Not available.
Flu Activity Sporadic
METAR KLOR 250153Z AUTO 31005KT 9SM BKN055 OVC075 24/21 A3014 RMK AO2 SLP204 T02390211

More Conditions Fewer Conditions

Pressure 30.14 in
Visibility 9.0 miles
Clouds Mostly Cloudy 5500 ft
Overcast 7500 ft
Dew Point 69 °F
Humidity 96%
Rainfall in
Snow Depth Not available.
UV 0 out of 12
Pollen 6.40 out of 12
Air Quality Not available.
Flu Activity Sporadic
METAR KLOR 250153Z AUTO 31005KT 9SM BKN055 OVC075 24/21 A3014 RMK AO2 SLP204 T02390211

More Conditions Fewer Conditions

10-Day Weather Forecast

Almanac

Astronomy

May. 24, 2015 Rise Set
Actual Time
Civil Twilight
Nautical Twilight
Astronomical Twilight
Moon
Length of Visible Light
Length of Day
Tomorrow will be .
, % of the Moon is Illuminated

Today's Extremes

State Highs State Lows

Community

WunderPhotos

Upload Photos

1,823,923 photos uploaded!

WunderBlogs® & News

Nearby

Air Quality

  Air Quality AQ Index Pollutant
Not available.

Snow Depth

Station Depth Elevation

Earthquake Activity

City Distance Mag. Time & Date
Minimum magnitude displayed is 2.5.

Coastal Water Temperatures

Place Temperature

Stations

Nearby Weather Stations

Station Location Temp. Windchill Dew Point Humidity Wind Precip. Elev Updated Type